createdAt,value
2019-02-03T00:01:17.551Z,5.35
2019-02-03T00:03:44.793Z,5.31
2019-02-03T00:06:12.224Z,5.28
2019-02-03T00:08:39.497Z,5.33
2019-02-03T00:11:06.705Z,5.29
2019-02-03T00:13:34.248Z,5.28
2019-02-03T00:16:01.608Z,5.27
2019-02-03T00:18:28.997Z,5.24
2019-02-03T00:20:56.200Z,5.25
2019-02-03T00:23:23.536Z,5.27
2019-02-03T00:25:51.766Z,5.31
2019-02-03T00:28:20.619Z,5.27
2019-02-03T00:30:47.856Z,5.21
2019-02-03T00:33:15.015Z,5.08
2019-02-03T00:35:42.200Z,5.05
2019-02-03T00:38:19.890Z,5.03
2019-02-03T00:40:38.567Z,4.99
2019-02-03T00:43:06.150Z,5.00
2019-02-03T00:45:33.438Z,5.05
2019-02-03T00:48:00.588Z,5.00
2019-02-03T00:50:28.204Z,4.95
2019-02-03T00:52:55.889Z,4.90
2019-02-03T00:55:23.102Z,4.90
2019-02-03T00:57:50.781Z,4.94
2019-02-03T01:00:18.243Z,4.86
2019-02-03T01:02:45.459Z,4.83
2019-02-03T01:05:14.683Z,4.81
2019-02-03T01:07:41.960Z,4.75
2019-02-03T01:10:12.182Z,4.78
2019-02-03T01:12:39.400Z,4.78
2019-02-03T01:15:07.470Z,4.78
2019-02-03T01:17:36.160Z,4.73
2019-02-03T01:20:05.386Z,4.87
2019-02-03T01:22:32.749Z,4.82
2019-02-03T01:24:59.964Z,4.70
2019-02-03T01:27:27.266Z,4.65
2019-02-03T01:29:54.789Z,4.61
2019-02-03T01:32:22.077Z,4.57
2019-02-03T01:34:49.323Z,4.57
2019-02-03T01:37:16.624Z,4.60
2019-02-03T01:39:44.956Z,4.59
2019-02-03T01:42:12.527Z,4.57
2019-02-03T01:44:40.095Z,4.53
2019-02-03T01:47:07.366Z,4.38
2019-02-03T01:49:34.616Z,4.33
2019-02-03T01:52:01.920Z,4.37
2019-02-03T01:54:29.040Z,4.40
2019-02-03T01:56:56.333Z,4.38
2019-02-03T01:59:23.553Z,4.40
2019-02-03T02:01:51.024Z,4.39
2019-02-03T02:04:18.340Z,4.43
2019-02-03T02:06:45.634Z,4.44
2019-02-03T02:09:12.968Z,4.45
2019-02-03T02:11:40.621Z,4.46
2019-02-03T02:14:07.981Z,4.44
2019-02-03T02:16:35.217Z,4.45
2019-02-03T02:19:02.465Z,4.41
2019-02-03T02:21:29.850Z,4.39
2019-02-03T02:23:58.288Z,4.42
2019-02-03T02:26:25.789Z,4.40
2019-02-03T02:28:53.439Z,4.32
2019-02-03T02:31:23.287Z,4.31
2019-02-03T02:33:50.955Z,4.28
2019-02-03T02:36:18.160Z,4.28
2019-02-03T02:38:45.453Z,4.30
2019-02-03T02:41:12.710Z,4.29
2019-02-03T02:43:40.190Z,4.20
2019-02-03T02:46:07.450Z,4.20
2019-02-03T02:48:34.684Z,4.15
2019-02-03T02:51:02.032Z,4.18
2019-02-03T02:53:29.270Z,4.19
2019-02-03T02:55:56.519Z,4.23
2019-02-03T02:58:23.894Z,4.14
2019-02-03T03:00:51.156Z,4.04
2019-02-03T03:03:18.381Z,4.06
2019-02-03T03:05:45.817Z,4.06
2019-02-03T03:08:19.067Z,4.10
2019-02-03T03:10:42.225Z,4.02
2019-02-03T03:13:09.763Z,3.99
2019-02-03T03:15:37.005Z,3.96
2019-02-03T03:18:04.307Z,4.07
2019-02-03T03:20:31.470Z,3.97
2019-02-03T03:22:59.213Z,3.95
2019-02-03T03:25:26.440Z,3.93
2019-02-03T03:27:53.715Z,3.89
2019-02-03T03:30:23.057Z,3.93
2019-02-03T03:32:51.094Z,3.87
2019-02-03T03:35:18.726Z,3.91
2019-02-03T03:37:45.944Z,3.86
2019-02-03T03:40:15.281Z,3.82
2019-02-03T03:42:42.519Z,3.78
2019-02-03T03:45:10.584Z,3.79
2019-02-03T03:47:37.720Z,3.81
2019-02-03T03:50:06.165Z,3.75
2019-02-03T03:52:33.778Z,3.78
2019-02-03T03:55:01.135Z,3.74
2019-02-03T03:57:28.362Z,3.78
2019-02-03T03:59:57.216Z,3.77
2019-02-03T04:02:24.462Z,3.73
2019-02-03T04:04:52.333Z,3.73
2019-02-03T04:07:19.940Z,3.76
2019-02-03T04:09:47.221Z,3.77
2019-02-03T04:12:14.504Z,3.71
2019-02-03T04:14:41.862Z,3.70
2019-02-03T04:17:09.116Z,3.67
2019-02-03T04:19:36.961Z,3.65
2019-02-03T04:22:04.519Z,3.65
2019-02-03T04:24:32.121Z,3.66
2019-02-03T04:27:00.273Z,3.71
2019-02-03T04:29:27.592Z,3.69
2019-02-03T04:31:54.879Z,3.74
2019-02-03T04:34:44.269Z,3.83
2019-02-03T04:37:12.051Z,3.82
2019-02-03T04:39:46.404Z,3.82
2019-02-03T04:42:16.806Z,3.79
2019-02-03T04:44:45.367Z,3.83
2019-02-03T04:47:14.565Z,3.85
2019-02-03T04:49:44.660Z,3.76
2019-02-03T04:52:17.600Z,3.75
2019-02-03T04:54:50.303Z,3.76
2019-02-03T04:57:23.553Z,3.75
2019-02-03T04:59:51.675Z,3.73
2019-02-03T05:02:18.923Z,3.85
2019-02-03T05:04:46.296Z,3.79
2019-02-03T05:07:13.689Z,3.74
2019-02-03T05:09:41.238Z,3.71
2019-02-03T05:12:08.754Z,3.69
2019-02-03T05:14:36.096Z,3.69
2019-02-03T05:17:03.784Z,3.66
2019-02-03T05:19:31.001Z,3.63
2019-02-03T05:21:58.250Z,3.64
2019-02-03T05:24:25.523Z,3.57
2019-02-03T05:26:52.793Z,3.54
2019-02-03T05:29:20.090Z,3.53
2019-02-03T05:31:47.331Z,3.55
2019-02-03T05:34:14.425Z,3.54
2019-02-03T05:36:41.985Z,3.55
2019-02-03T05:39:09.878Z,3.54
2019-02-03T05:41:37.410Z,3.53
2019-02-03T05:44:05.158Z,3.51
2019-02-03T05:46:32.506Z,3.43
2019-02-03T05:49:00.721Z,3.40
2019-02-03T05:51:28.066Z,3.37
2019-02-03T05:53:55.727Z,3.39
2019-02-03T05:56:23.036Z,3.37
2019-02-03T05:58:50.253Z,3.36
2019-02-03T06:01:17.593Z,3.35
2019-02-03T06:03:44.809Z,3.32
2019-02-03T06:06:12.100Z,3.21
2019-02-03T06:08:39.319Z,3.14
2019-02-03T06:11:06.844Z,3.03
2019-02-03T06:13:34.469Z,2.95
2019-02-03T06:16:01.742Z,2.89
2019-02-03T06:18:29.256Z,2.82
2019-02-03T06:20:57.698Z,2.76
2019-02-03T06:23:24.843Z,2.73
2019-02-03T06:25:51.960Z,2.69
2019-02-03T06:28:19.559Z,2.65
2019-02-03T06:31:07.002Z,2.62
2019-02-03T06:33:34.530Z,2.64
2019-02-03T06:36:01.830Z,2.68
2019-02-03T06:38:29.356Z,2.75
2019-02-03T06:40:56.654Z,2.82
2019-02-03T06:43:24.601Z,2.87
2019-02-03T06:45:57.889Z,2.88
2019-02-03T06:48:25.290Z,2.84
2019-02-03T06:50:52.453Z,2.82
2019-02-03T06:53:19.719Z,2.81
2019-02-03T06:55:46.978Z,2.78
2019-02-03T06:58:14.199Z,2.75
2019-02-03T07:00:41.489Z,2.75
2019-02-03T07:03:08.964Z,2.66
2019-02-03T07:05:36.418Z,2.60
2019-02-03T07:08:03.696Z,2.51
2019-02-03T07:10:31.353Z,2.49
2019-02-03T07:13:00.292Z,2.44
2019-02-03T07:15:27.664Z,2.41
2019-02-03T07:17:54.801Z,2.39
2019-02-03T07:20:22.053Z,2.37
2019-02-03T07:22:49.314Z,2.38
2019-02-03T07:25:16.845Z,2.39
2019-02-03T07:27:44.109Z,2.46
2019-02-03T07:30:12.604Z,2.53
2019-02-03T07:32:40.259Z,2.56
2019-02-03T07:35:08.803Z,2.64
2019-02-03T07:37:37.017Z,2.70
2019-02-03T07:40:12.099Z,2.76
2019-02-03T07:42:33.480Z,2.83
2019-02-03T07:45:00.703Z,2.90
2019-02-03T07:47:27.955Z,2.96
2019-02-03T07:49:55.182Z,3.05
2019-02-03T07:52:22.397Z,3.07
2019-02-03T07:54:49.919Z,3.13
2019-02-03T07:57:17.555Z,3.26
2019-02-03T07:59:44.785Z,3.30
2019-02-03T08:02:12.071Z,3.36
2019-02-03T08:04:39.551Z,3.55
2019-02-03T08:07:07.205Z,3.63
2019-02-03T08:09:34.428Z,3.72
2019-02-03T08:12:01.698Z,3.75
2019-02-03T08:14:28.965Z,3.84
2019-02-03T08:16:56.559Z,4.09
2019-02-03T08:19:24.691Z,4.14
2019-02-03T08:21:51.982Z,4.22
2019-02-03T08:24:19.417Z,4.25
2019-02-03T08:26:46.662Z,4.30
2019-02-03T08:29:14.865Z,4.32
2019-02-03T08:31:42.767Z,4.36
2019-02-03T08:34:10.049Z,4.37
2019-02-03T08:36:38.209Z,4.41
2019-02-03T08:39:07.657Z,4.46
2019-02-03T08:41:35.577Z,4.48
2019-02-03T08:44:06.173Z,4.59
2019-02-03T08:46:34.246Z,4.68
2019-02-03T08:49:04.808Z,4.75
2019-02-03T08:51:32.596Z,4.77
2019-02-03T08:53:59.954Z,4.79
2019-02-03T08:56:34.883Z,4.64
2019-02-03T08:59:04.463Z,4.67
2019-02-03T09:01:34.882Z,4.70
2019-02-03T09:04:02.572Z,4.71
2019-02-03T09:06:34.633Z,4.75
2019-02-03T09:09:04.290Z,4.77
2019-02-03T09:11:36.209Z,4.79
2019-02-03T09:14:04.091Z,4.85
2019-02-03T09:16:31.431Z,4.97
2019-02-03T09:18:58.696Z,5.10
2019-02-03T09:21:27.086Z,5.22
2019-02-03T09:23:54.766Z,5.29
2019-02-03T09:26:22.026Z,5.27
2019-02-03T09:28:49.158Z,5.29
2019-02-03T09:31:16.813Z,5.37
2019-02-03T09:33:44.029Z,5.45
2019-02-03T09:36:11.843Z,5.50
2019-02-03T09:38:39.197Z,5.52
2019-02-03T09:41:06.613Z,5.60
2019-02-03T09:43:33.801Z,5.68
2019-02-03T09:46:01.099Z,5.72
2019-02-03T09:48:28.448Z,5.80
2019-02-03T09:50:55.626Z,5.90
2019-02-03T09:53:22.900Z,5.85
2019-02-03T09:55:50.993Z,5.91
2019-02-03T09:58:18.217Z,6.02
2019-02-03T10:00:46.289Z,5.94
2019-02-03T10:03:13.910Z,5.97
2019-02-03T10:05:41.072Z,6.02
2019-02-03T10:08:08.391Z,6.11
2019-02-03T10:10:37.557Z,6.19
2019-02-03T10:13:22.850Z,6.22
2019-02-03T10:15:50.187Z,6.14
2019-02-03T10:18:17.803Z,5.88
2019-02-03T10:20:45.304Z,5.76
2019-02-03T10:23:13.207Z,5.65
2019-02-03T10:25:40.404Z,5.73
2019-02-03T10:28:07.916Z,5.85
2019-02-03T10:30:35.298Z,6.05
2019-02-03T10:33:02.775Z,6.21
2019-02-03T10:35:30.388Z,6.42
2019-02-03T10:38:03.686Z,6.56
2019-02-03T10:40:33.345Z,6.56
2019-02-03T10:43:01.377Z,6.58
2019-02-03T10:45:28.898Z,6.72
2019-02-03T10:47:56.529Z,6.82
2019-02-03T10:50:26.278Z,6.97
2019-02-03T10:52:54.003Z,6.98
2019-02-03T10:55:21.350Z,7.00
2019-02-03T10:57:48.819Z,7.06
2019-02-03T11:00:19.033Z,7.15
2019-02-03T11:02:46.299Z,7.14
2019-02-03T11:05:15.933Z,7.07
2019-02-03T11:07:45.355Z,6.89
2019-02-03T11:10:15.856Z,6.68
2019-02-03T11:12:42.940Z,6.41
2019-02-03T11:15:11.455Z,6.23
2019-02-03T11:17:39.816Z,6.20
2019-02-03T11:20:11.061Z,6.24
2019-02-03T11:22:38.701Z,6.34
2019-02-03T11:25:07.087Z,6.54
2019-02-03T11:27:34.971Z,6.64
2019-02-03T11:30:02.815Z,6.71
2019-02-03T11:32:30.105Z,6.74
2019-02-03T11:34:57.294Z,6.67
2019-02-03T11:37:24.441Z,6.62
2019-02-03T11:39:51.602Z,6.44
2019-02-03T11:42:19.108Z,6.37
2019-02-03T11:44:46.603Z,6.34
2019-02-03T11:47:13.833Z,6.35
2019-02-03T11:49:41.155Z,6.37
2019-02-03T11:52:08.408Z,6.43
2019-02-03T11:54:35.756Z,6.43
2019-02-03T11:57:03.119Z,6.40
2019-02-03T11:59:30.481Z,6.28
2019-02-03T12:01:58.253Z,6.18
2019-02-03T12:04:25.421Z,6.07
2019-02-03T12:06:52.617Z,5.98
2019-02-03T12:09:20.344Z,5.94
2019-02-03T12:12:00.385Z,5.98
2019-02-03T12:14:17.349Z,6.01
2019-02-03T12:16:45.449Z,6.02
2019-02-03T12:19:13.351Z,6.10
2019-02-03T12:21:40.696Z,6.13
2019-02-03T12:24:07.928Z,6.15
2019-02-03T12:26:36.625Z,6.10
2019-02-03T12:29:06.595Z,6.10
2019-02-03T12:31:34.093Z,6.02
2019-02-03T12:34:01.621Z,6.03
2019-02-03T12:36:29.145Z,5.98
2019-02-03T12:38:56.668Z,5.98
2019-02-03T12:41:24.119Z,5.96
2019-02-03T12:43:52.176Z,5.96
2019-02-03T12:46:19.896Z,5.99
2019-02-03T12:48:47.223Z,5.86
2019-02-03T12:51:14.836Z,5.75
2019-02-03T12:53:42.419Z,5.70
2019-02-03T12:56:09.800Z,5.65
2019-02-03T12:58:36.958Z,5.76
2019-02-03T13:01:05.172Z,5.79
2019-02-03T13:03:32.654Z,5.89
2019-02-03T13:05:59.706Z,5.97
2019-02-03T13:08:27.375Z,5.99
2019-02-03T13:10:54.732Z,6.05
2019-02-03T13:13:25.482Z,6.12
2019-02-03T13:15:54.137Z,6.15
2019-02-03T13:18:21.760Z,6.13
2019-02-03T13:20:49.641Z,6.07
2019-02-03T13:23:17.053Z,6.00
2019-02-03T13:25:45.331Z,5.85
2019-02-03T13:28:13.244Z,5.88
2019-02-03T13:30:48.038Z,5.89
2019-02-03T13:33:15.737Z,5.97
2019-02-03T13:35:43.010Z,6.15
2019-02-03T13:38:10.614Z,6.26
2019-02-03T13:40:38.259Z,6.31
2019-02-03T13:43:06.079Z,6.31
2019-02-03T13:45:34.369Z,6.34
2019-02-03T13:48:01.917Z,6.32
2019-02-03T13:50:30.418Z,6.31
2019-02-03T13:53:00.777Z,6.36
2019-02-03T13:55:30.005Z,6.34
2019-02-03T13:57:58.193Z,6.41
2019-02-03T14:00:29.131Z,6.39
2019-02-03T14:02:56.307Z,6.41
2019-02-03T14:05:23.620Z,6.47
2019-02-03T14:07:51.144Z,6.53
2019-02-03T14:10:32.466Z,6.55
2019-02-03T14:13:00.483Z,6.52
2019-02-03T14:15:28.769Z,6.64
2019-02-03T14:17:56.142Z,6.50
2019-02-03T14:20:25.179Z,6.51
2019-02-03T14:22:52.899Z,6.52
2019-02-03T14:25:26.961Z,6.44
2019-02-03T14:27:55.403Z,6.38
2019-02-03T14:30:39.274Z,6.39
2019-02-03T14:32:58.510Z,6.30
2019-02-03T14:35:26.393Z,6.17
2019-02-03T14:37:54.220Z,6.21
2019-02-03T14:40:22.578Z,6.28
2019-02-03T14:43:00.855Z,6.31
2019-02-03T14:45:26.099Z,6.35
2019-02-03T14:47:54.638Z,6.39
2019-02-03T14:50:23.239Z,6.46
2019-02-03T14:52:52.954Z,6.39
2019-02-03T14:55:25.239Z,6.32
2019-02-03T14:57:53.228Z,6.21
2019-02-03T15:00:26.247Z,6.10
2019-02-03T15:02:54.081Z,5.93
2019-02-03T15:05:21.923Z,5.95
2019-02-03T15:07:49.483Z,5.93
2019-02-03T15:10:16.866Z,5.90
2019-02-03T15:12:44.595Z,5.85
2019-02-03T15:15:13.589Z,5.94
2019-02-03T15:17:41.284Z,5.84
2019-02-03T15:20:11.011Z,5.80
2019-02-03T15:22:38.441Z,5.75
2019-02-03T15:25:06.744Z,5.77
2019-02-03T15:27:34.538Z,5.77
2019-02-03T15:30:02.142Z,5.78
2019-02-03T15:32:29.940Z,5.78
2019-02-03T15:34:57.546Z,5.78
2019-02-03T15:37:24.913Z,5.73
2019-02-03T15:39:55.064Z,5.67
2019-02-03T15:42:21.878Z,5.63
2019-02-03T15:44:49.338Z,5.62
2019-02-03T15:47:16.965Z,5.55
2019-02-03T15:49:44.170Z,5.48
2019-02-03T15:52:11.808Z,5.41
2019-02-03T15:54:39.658Z,5.34
2019-02-03T15:57:07.190Z,5.31
2019-02-03T15:59:34.465Z,5.29
2019-02-03T16:02:02.744Z,5.31
2019-02-03T16:04:29.946Z,5.21
2019-02-03T16:06:57.772Z,5.14
2019-02-03T16:09:25.608Z,5.13
2019-02-03T16:11:53.450Z,5.22
2019-02-03T16:14:20.757Z,5.10
2019-02-03T16:16:48.402Z,5.03
2019-02-03T16:19:15.676Z,4.99
2019-02-03T16:21:43.166Z,5.01
2019-02-03T16:24:10.669Z,4.95
2019-02-03T16:26:38.616Z,4.88
2019-02-03T16:29:07.356Z,4.93
2019-02-03T16:31:35.026Z,4.88
2019-02-03T16:34:02.880Z,4.86
2019-02-03T16:36:30.541Z,4.79
2019-02-03T16:38:58.868Z,4.74
2019-02-03T16:41:25.956Z,4.74
2019-02-03T16:43:53.306Z,4.75
2019-02-03T16:46:20.604Z,4.78
2019-02-03T16:48:48.189Z,4.75
2019-02-03T16:51:15.470Z,4.71
2019-02-03T16:53:45.970Z,4.71
2019-02-03T16:56:13.414Z,4.70
2019-02-03T16:58:40.866Z,4.73
2019-02-03T17:01:08.488Z,4.72
2019-02-03T17:03:35.663Z,4.67
2019-02-03T17:06:03.014Z,4.64
2019-02-03T17:08:30.364Z,4.62
2019-02-03T17:10:58.166Z,4.62
2019-02-03T17:13:25.336Z,4.71
2019-02-03T17:15:57.720Z,4.74
2019-02-03T17:18:24.895Z,4.72
2019-02-03T17:21:01.506Z,4.68
2019-02-03T17:23:21.432Z,4.68
2019-02-03T17:25:51.607Z,4.60
2019-02-03T17:28:18.763Z,4.61
2019-02-03T17:30:46.375Z,4.67
2019-02-03T17:33:13.852Z,4.67
2019-02-03T17:35:53.444Z,4.61
2019-02-03T17:38:10.263Z,4.62
2019-02-03T17:40:37.538Z,4.59
2019-02-03T17:43:04.920Z,4.54
2019-02-03T17:45:32.249Z,4.55
2019-02-03T17:47:59.385Z,4.61
2019-02-03T17:50:26.651Z,4.57
2019-02-03T17:52:54.259Z,4.54
2019-02-03T17:55:22.062Z,4.60
2019-02-03T17:57:49.237Z,4.64
2019-02-03T18:00:18.824Z,4.77
2019-02-03T18:02:46.989Z,4.69
2019-02-03T18:05:14.575Z,4.59
2019-02-03T18:07:42.020Z,4.63
2019-02-03T18:10:16.494Z,4.55
2019-02-03T18:12:43.721Z,4.55
2019-02-03T18:15:10.914Z,4.49
2019-02-03T18:17:38.063Z,4.46
2019-02-03T18:20:07.949Z,4.41
2019-02-03T18:22:36.212Z,4.39
2019-02-03T18:25:04.256Z,4.36
2019-02-03T18:27:31.487Z,4.40
2019-02-03T18:29:59.004Z,4.59
2019-02-03T18:32:26.228Z,4.51
2019-02-03T18:34:53.544Z,4.52
2019-02-03T18:37:20.901Z,4.49
2019-02-03T18:39:48.079Z,4.47
2019-02-03T18:42:16.422Z,4.41
2019-02-03T18:44:45.251Z,4.37
2019-02-03T18:47:12.655Z,4.38
2019-02-03T18:49:40.495Z,4.40
2019-02-03T18:52:07.629Z,4.39
2019-02-03T18:54:35.366Z,4.39
2019-02-03T18:57:02.648Z,4.39
2019-02-03T18:59:31.247Z,4.40
2019-02-03T19:01:59.918Z,4.36
2019-02-03T19:04:27.488Z,4.42
2019-02-03T19:06:54.664Z,4.37
2019-02-03T19:09:21.968Z,4.34
2019-02-03T19:11:49.337Z,4.34
2019-02-03T19:14:18.234Z,4.36
2019-02-03T19:16:46.045Z,4.34
2019-02-03T19:19:13.355Z,4.30
2019-02-03T19:21:40.691Z,4.30
2019-02-03T19:24:08.083Z,4.30
2019-02-03T19:26:35.756Z,4.25
2019-02-03T19:29:03.195Z,4.28
2019-02-03T19:31:30.562Z,4.27
2019-02-03T19:33:59.071Z,4.30
2019-02-03T19:36:26.370Z,4.38
2019-02-03T19:38:53.934Z,4.37
2019-02-03T19:41:21.324Z,4.34
2019-02-03T19:43:49.070Z,4.30
2019-02-03T19:46:17.384Z,4.31
2019-02-03T19:48:46.773Z,4.28
2019-02-03T19:51:14.370Z,4.23
2019-02-03T19:53:42.323Z,4.25
2019-02-03T19:56:09.892Z,4.24
2019-02-03T20:01:09.752Z,4.45
2019-02-03T20:03:37.236Z,4.46
2019-02-03T20:06:04.543Z,4.42
2019-02-03T20:08:31.792Z,4.43
2019-02-03T20:10:59.158Z,4.42
2019-02-03T20:13:26.909Z,4.50
2019-02-03T20:15:54.297Z,4.46
2019-02-03T20:18:22.449Z,4.42
2019-02-03T20:20:50.030Z,4.37
2019-02-03T20:23:17.662Z,4.34
2019-02-03T20:25:44.820Z,4.31
2019-02-03T20:28:12.069Z,4.30
2019-02-03T20:30:39.683Z,4.26
2019-02-03T20:33:07.265Z,4.24
2019-02-03T20:35:34.559Z,4.16
2019-02-03T20:38:02.067Z,4.11
2019-02-03T20:40:31.394Z,4.07
2019-02-03T20:42:58.951Z,4.10
2019-02-03T20:45:26.367Z,4.14
2019-02-03T20:47:53.488Z,4.11
2019-02-03T20:50:20.980Z,4.06
2019-02-03T20:52:48.634Z,3.99
2019-02-03T20:55:16.456Z,3.93
2019-02-03T20:57:43.607Z,3.96
2019-02-03T21:00:14.432Z,4.02
2019-02-03T21:02:41.552Z,4.04
2019-02-03T21:05:08.988Z,3.99
2019-02-03T21:07:36.030Z,3.90
2019-02-03T21:10:05.142Z,3.84
2019-02-03T21:12:32.333Z,3.91
2019-02-03T21:14:59.758Z,3.83
2019-02-03T21:17:27.002Z,3.77
2019-02-03T21:19:54.520Z,3.71
2019-02-03T21:22:21.814Z,3.66
2019-02-03T21:24:49.068Z,3.65
2019-02-03T21:27:16.880Z,3.52
2019-02-03T21:29:44.078Z,3.39
2019-02-03T21:32:11.372Z,3.18
2019-02-03T21:34:38.549Z,2.94
2019-02-03T21:37:05.724Z,2.72
2019-02-03T21:39:32.982Z,2.47
2019-02-03T21:42:00.126Z,2.26
2019-02-03T21:44:27.503Z,2.15
2019-02-03T21:46:55.013Z,1.97
2019-02-03T21:49:22.214Z,1.80
2019-02-03T21:51:49.385Z,1.66
2019-02-03T21:54:16.609Z,1.57
2019-02-03T21:56:44.101Z,1.57
2019-02-03T21:59:11.288Z,1.57
2019-02-03T22:01:38.584Z,1.71
2019-02-03T22:04:05.742Z,1.77
2019-02-03T22:06:32.966Z,1.87
2019-02-03T22:09:00.344Z,1.87
2019-02-03T22:11:27.626Z,1.77
2019-02-03T22:13:54.826Z,1.62
2019-02-03T22:16:22.313Z,1.59
2019-02-03T22:18:49.463Z,1.57
2019-02-03T22:21:16.777Z,1.62
2019-02-03T22:23:43.881Z,1.86
2019-02-03T22:26:10.934Z,1.91
2019-02-03T22:28:38.399Z,1.94
2019-02-03T22:31:05.519Z,2.02
2019-02-03T22:33:32.976Z,2.08
2019-02-03T22:36:00.153Z,2.08
2019-02-03T22:38:27.462Z,2.09
2019-02-03T22:40:54.609Z,2.10
2019-02-03T22:43:21.915Z,2.08
2019-02-03T22:45:49.116Z,2.16
2019-02-03T22:48:16.325Z,2.16
2019-02-03T22:50:43.424Z,2.18
2019-02-03T22:53:10.645Z,2.21
2019-02-03T22:55:37.859Z,2.23
2019-02-03T22:58:05.062Z,2.32
2019-02-03T23:01:08.908Z,2.52
2019-02-03T23:03:41.916Z,2.81
2019-02-03T23:06:09.206Z,2.89
2019-02-03T23:08:36.420Z,2.81
2019-02-03T23:11:04.399Z,2.66
2019-02-03T23:13:31.872Z,2.58
2019-02-03T23:15:59.043Z,2.47
2019-02-03T23:18:26.255Z,2.35
2019-02-03T23:20:53.361Z,2.26
2019-02-03T23:23:20.758Z,2.15
2019-02-03T23:25:47.917Z,2.11
2019-02-03T23:28:15.407Z,2.06
2019-02-03T23:30:42.847Z,2.00
2019-02-03T23:33:10.471Z,2.01
2019-02-03T23:35:37.603Z,2.02
2019-02-03T23:38:04.909Z,2.09
2019-02-03T23:40:32.071Z,2.09
2019-02-03T23:42:59.274Z,2.08
2019-02-03T23:45:27.401Z,2.02
2019-02-03T23:47:54.453Z,1.96
2019-02-03T23:50:21.622Z,1.93
2019-02-03T23:52:48.937Z,1.84
2019-02-03T23:55:16.135Z,1.85
2019-02-03T23:57:43.521Z,1.76
